Time;durP1;ratioP1;P1;durP2;ratioP2;P2;SDS_P1;SDS_P2;PMS_P1;PMS_P2;Temp;Humidity;BMP_temperature;BMP_pressure;BME280_temperature;BME280_humidity;BME280_pressure;Samples;Min_cycle;Max_cycle;Signal;HPM_P1;HPM_P2
2023/05/10 00:00:23;;;;;;;7.20;3.80;;;;;;;7.71;49.92;100606.55;105644;1256;61355;-74
2023/05/10 00:02:50;;;;;;;6.60;4.00;;;;;;;7.72;49.74;100608.64;105637;1256;62529;-73
2023/05/10 00:05:17;;;;;;;6.20;3.60;;;;;;;7.73;50.01;100607.65;105798;1256;74829;-77
2023/05/10 00:07:44;;;;;;;6.30;4.00;;;;;;;7.74;50.07;100608.27;105782;1260;72453;-74
2023/05/10 00:10:11;;;;;;;6.00;4.30;;;;;;;7.73;50.26;100606.61;105710;1257;72948;-74
2023/05/10 00:12:38;;;;;;;7.30;4.20;;;;;;;7.73;50.57;100603.98;105672;1256;60125;-75
2023/05/10 00:15:06;;;;;;;5.40;3.10;;;;;;;7.73;50.56;100602.86;105681;1254;62410;-74
2023/05/10 00:17:33;;;;;;;5.10;3.90;;;;;;;7.73;50.56;100604.61;105864;1254;74817;-76
2023/05/10 00:20:00;;;;;;;6.10;3.60;;;;;;;7.69;50.36;100599.80;105636;1256;69941;-73
2023/05/10 00:22:27;;;;;;;7.00;3.80;;;;;;;7.69;50.50;100600.88;105735;1259;74381;-71
2023/05/10 00:24:54;;;;;;;6.60;3.70;;;;;;;7.69;50.70;100600.71;105731;1261;59646;-74
2023/05/10 00:27:21;;;;;;;5.10;3.50;;;;;;;7.71;50.67;100599.13;105872;1254;62081;-75
2023/05/10 00:29:47;;;;;;;5.10;3.80;;;;;;;7.72;50.83;100597.45;105752;1256;74186;-74
2023/05/10 00:32:14;;;;;;;7.80;4.50;;;;;;;7.71;50.79;100599.52;105664;1261;69904;-76
2023/05/10 00:34:42;;;;;;;6.90;4.20;;;;;;;7.71;50.97;100599.33;105667;1257;74941;-77
2023/05/10 00:37:09;;;;;;;6.90;3.90;;;;;;;7.72;51.12;100600.10;105603;1256;60337;-73
2023/05/10 00:39:36;;;;;;;5.90;3.70;;;;;;;7.74;51.03;100596.61;105553;1254;62684;-73
2023/05/10 00:42:04;;;;;;;6.30;3.70;;;;;;;7.76;50.62;100595.70;105679;1256;74879;-75
2023/05/10 00:44:31;;;;;;;6.80;3.90;;;;;;;7.78;50.52;100594.48;105721;1256;70373;-73
2023/05/10 00:46:58;;;;;;;4.50;3.50;;;;;;;7.80;50.29;100598.55;105669;1258;73488;-74
2023/05/10 00:49:25;;;;;;;5.00;3.70;;;;;;;7.81;50.29;100597.23;105688;1256;61647;-72
2023/05/10 00:51:51;;;;;;;7.40;3.90;;;;;;;7.83;50.25;100595.65;105775;1257;62969;-74
2023/05/10 00:54:19;;;;;;;6.50;3.70;;;;;;;7.85;50.32;100599.34;105568;1261;75177;-73
2023/05/10 00:56:48;;;;;;;5.80;3.60;;;;;;;7.88;50.52;100598.23;105495;1259;71132;-73
2023/05/10 00:59:16;;;;;;;9.70;4.00;;;;;;;7.90;50.37;100590.02;105583;1257;74906;-71
2023/05/10 01:01:46;;;;;;;7.20;3.70;;;;;;;7.92;50.08;100590.84;105714;1256;61542;-73
2023/05/10 01:04:14;;;;;;;6.40;3.80;;;;;;;7.94;50.06;100596.74;105692;1261;62260;-74
2023/05/10 01:06:41;;;;;;;4.40;3.40;;;;;;;7.93;49.90;100596.59;105617;1255;73120;-73
2023/05/10 01:09:08;;;;;;;7.40;3.70;;;;;;;7.96;50.15;100600.60;105518;1261;72064;-71
2023/05/10 01:11:35;;;;;;;5.20;2.90;;;;;;;7.97;50.34;100602.27;105533;1259;74647;-73
2023/05/10 01:14:02;;;;;;;6.90;3.50;;;;;;;7.96;50.47;100598.63;105798;1257;60177;-72
2023/05/10 01:16:31;;;;;;;7.10;3.60;;;;;;;7.93;50.59;100598.76;105343;1256;62449;-72
2023/05/10 01:18:58;;;;;;;5.10;3.20;;;;;;;7.93;50.88;100598.55;105697;1256;75390;-71
2023/05/10 01:21:47;;;;;;;7.40;3.80;;;;;;;7.88;51.11;100592.73;105595;1256;71008;-73
2023/05/10 01:24:51;;;;;;;6.00;3.90;;;;;;;7.84;50.90;100590.14;105525;1256;73435;-74
2023/05/10 01:27:18;;;;;;;;;;;;;;;7.84;51.46;100593.98;105629;1256;59670;-75
2023/05/10 01:30:04;;;;;;;5.20;3.10;;;;;;;7.85;51.47;100595.88;105503;1264;59994;-71
2023/05/10 01:32:41;;;;;;;4.40;3.00;;;;;;;7.81;51.33;100589.34;105328;1256;75194;-73
2023/05/10 01:35:34;;;;;;;7.20;3.20;;;;;;;7.77;51.39;100592.45;105542;1259;71821;-73
2023/05/10 01:38:11;;;;;;;6.50;3.70;;;;;;;7.75;51.54;100590.88;105557;1263;73451;-74
2023/05/10 01:41:01;;;;;;;5.30;3.50;;;;;;;7.75;51.57;100590.20;105544;1261;60141;-73
2023/05/10 01:43:37;;;;;;;6.60;3.70;;;;;;;7.77;51.84;100587.54;105527;1255;61094;-75
2023/05/10 01:46:10;;;;;;;5.30;3.00;;;;;;;7.81;51.96;100582.61;105678;1256;74052;-73
2023/05/10 01:48:47;;;;;;;6.80;3.50;;;;;;;7.82;51.74;100582.00;105655;1256;72213;-76
2023/05/10 01:51:20;;;;;;;5.90;3.30;;;;;;;7.81;51.47;100579.45;105556;1256;73621;-76
2023/05/10 01:53:47;;;;;;;5.40;3.50;;;;;;;7.84;51.22;100579.38;105642;1261;60421;-74
2023/05/10 01:56:15;;;;;;;6.40;3.40;;;;;;;7.87;51.18;100576.83;105635;1256;60198;-76
2023/05/10 01:58:45;;;;;;;7.00;3.60;;;;;;;7.89;51.19;100576.82;105709;1255;73918;-75
2023/05/10 02:01:12;;;;;;;4.80;3.00;;;;;;;7.89;51.02;100577.15;105749;1256;72579;-75
2023/05/10 02:03:39;;;;;;;5.00;3.50;;;;;;;7.90;50.92;100578.54;105587;1258;74661;-74
2023/05/10 02:06:06;;;;;;;7.60;3.90;;;;;;;7.92;51.00;100577.30;105738;1254;61041;-75
2023/05/10 02:08:33;;;;;;;5.40;3.60;;;;;;;7.92;50.76;100572.52;105806;1258;62075;-71
2023/05/10 02:11:02;;;;;;;6.90;3.60;;;;;;;7.92;50.91;100572.00;105691;1256;75480;-73
2023/05/10 02:13:29;;;;;;;6.20;3.60;;;;;;;7.92;50.68;100573.02;105583;1256;70818;-74
2023/05/10 02:15:56;;;;;;;6.10;3.20;;;;;;;7.91;50.68;100570.13;105751;1256;74954;-74
2023/05/10 02:18:23;;;;;;;4.80;3.60;;;;;;;7.88;50.63;100572.98;105695;1259;60617;-75
2023/05/10 02:20:50;;;;;;;5.90;2.90;;;;;;;7.88;50.67;100574.80;105754;1256;61981;-74
2023/05/10 02:23:18;;;;;;;4.90;3.30;;;;;;;7.87;50.93;100577.55;105713;1258;75050;-75
2023/05/10 02:25:44;;;;;;;4.80;3.10;;;;;;;7.82;50.83;100578.60;105659;1259;72357;-75
2023/05/10 02:28:13;;;;;;;6.70;3.90;;;;;;;7.81;50.85;100581.25;105734;1261;74982;-74
2023/05/10 02:30:39;;;;;;;9.20;4.20;;;;;;;7.78;51.12;100581.64;105822;1254;61115;-74
2023/05/10 02:33:06;;;;;;;7.30;3.30;;;;;;;7.74;51.00;100578.42;105889;1254;62317;-74
2023/05/10 02:35:33;;;;;;;6.10;2.70;;;;;;;7.71;51.15;100582.23;105695;1254;75126;-71
2023/05/10 02:38:01;;;;;;;5.60;4.00;;;;;;;7.67;51.28;100581.52;105608;1256;72070;-72
2023/05/10 02:40:29;;;;;;;5.00;3.20;;;;;;;7.63;51.38;100577.95;105626;1256;74677;-73
2023/05/10 02:42:56;;;;;;;6.30;3.50;;;;;;;7.62;51.66;100583.48;105588;1262;60388;-73
2023/05/10 02:45:26;;;;;;;6.50;3.80;;;;;;;7.61;51.95;100581.84;105560;1258;61032;-73
2023/05/10 02:47:52;;;;;;;5.30;3.80;;;;;;;7.60;52.13;100580.89;105802;1258;73021;-74
2023/05/10 02:50:20;;;;;;;5.90;3.30;;;;;;;7.57;52.62;100579.84;105444;1261;71605;-74
2023/05/10 02:52:48;;;;;;;5.10;3.60;;;;;;;7.56;52.70;100580.27;105657;1261;73681;-73
2023/05/10 02:55:16;;;;;;;7.40;3.70;;;;;;;7.55;52.75;100577.73;105662;1261;60630;-72
2023/05/10 02:57:52;;;;;;;5.20;3.40;;;;;;;7.53;52.69;100577.94;105568;1260;60483;-75
2023/05/10 03:00:19;;;;;;;4.10;3.20;;;;;;;7.48;52.76;100576.02;105763;1256;75935;-74
2023/05/10 03:02:45;;;;;;;6.70;3.20;;;;;;;7.43;52.80;100575.33;105730;1262;71209;-72
2023/05/10 03:05:13;;;;;;;6.30;3.50;;;;;;;7.40;52.89;100580.73;105806;1256;74895;-72
2023/05/10 03:07:39;;;;;;;7.10;4.00;;;;;;;7.37;52.85;100582.02;105612;1260;60426;-74
2023/05/10 03:10:07;;;;;;;6.10;3.20;;;;;;;7.37;52.86;100582.80;105518;1262;62371;-74
2023/05/10 03:12:56;;;;;;;6.90;3.30;;;;;;;7.37;52.64;100582.10;105683;1256;73929;-74
2023/05/10 03:15:26;;;;;;;5.80;3.10;;;;;;;7.34;52.77;100586.37;105515;1261;71260;-75
2023/05/10 03:18:05;;;;;;;7.00;3.60;;;;;;;7.32;52.72;100584.23;105537;1261;74636;-73
2023/05/10 03:20:38;;;;;;;8.20;3.30;;;;;;;7.33;52.80;100578.36;105689;1256;60620;-75
2023/05/10 03:23:46;;;;;;;4.70;3.20;;;;;;;7.32;53.05;100579.80;105615;1261;62418;-73
2023/05/10 03:26:26;;;;;;;5.50;3.30;;;;;;;7.31;53.18;100585.73;105628;1264;76069;-75
2023/05/10 03:28:59;;;;;;;8.20;3.90;;;;;;;7.33;53.26;100586.30;105549;1256;71988;-74
2023/05/10 03:31:26;;;;;;;9.00;4.50;;;;;;;7.34;53.08;100581.62;105603;1262;73577;-75
2023/05/10 03:33:54;;;;;;;7.60;4.30;;;;;;;7.33;52.84;100580.77;105648;1261;61626;-74
2023/05/10 03:36:23;;;;;;;6.50;3.70;;;;;;;7.36;52.86;100579.67;105667;1257;62107;-73
2023/05/10 03:38:50;;;;;;;5.70;3.20;;;;;;;7.39;52.84;100577.14;105578;1260;73694;-74
2023/05/10 03:41:17;;;;;;;7.40;3.60;;;;;;;7.43;52.78;100580.17;105506;1256;70362;-74
2023/05/10 03:43:44;;;;;;;6.70;3.70;;;;;;;7.46;52.71;100579.14;105545;1256;74194;-75
2023/05/10 03:46:11;;;;;;;6.80;3.60;;;;;;;7.50;52.67;100581.67;105603;1256;60458;-75
2023/05/10 03:48:38;;;;;;;6.90;3.50;;;;;;;7.55;52.65;100582.33;105793;1258;61117;-74
2023/05/10 03:51:05;;;;;;;9.70;4.20;;;;;;;7.60;52.71;100582.81;105593;1256;73737;-74
2023/05/10 03:53:32;;;;;;;7.30;3.80;;;;;;;7.65;52.75;100584.29;105602;1256;71576;-74
2023/05/10 03:55:58;;;;;;;9.10;3.50;;;;;;;7.71;52.69;100587.67;105593;1260;74067;-75
2023/05/10 03:58:25;;;;;;;7.40;3.90;;;;;;;7.77;52.70;100590.04;105566;1258;60461;-74
2023/05/10 04:00:52;;;;;;;5.20;3.50;;;;;;;7.82;52.72;100590.41;105797;1255;60942;-74
2023/05/10 04:03:20;;;;;;;5.50;3.80;;;;;;;7.88;52.79;100592.42;105760;1260;75178;-75
2023/05/10 04:05:47;;;;;;;5.10;3.70;;;;;;;7.97;52.83;100594.16;105601;1260;71133;-75
2023/05/10 04:08:16;;;;;;;10.10;4.40;;;;;;;8.08;52.90;100597.81;105647;1259;74680;-75
2023/05/10 04:10:43;;;;;;;8.80;4.30;;;;;;;8.18;52.65;100594.60;105701;1258;61570;-75
2023/05/10 04:13:10;;;;;;;10.70;5.40;;;;;;;8.27;52.72;100594.17;105641;1261;61964;-75
2023/05/10 04:15:37;;;;;;;9.30;5.20;;;;;;;8.38;52.68;100596.13;105673;1257;74022;-74
2023/05/10 04:18:04;;;;;;;11.30;4.50;;;;;;;8.51;52.72;100599.98;105572;1256;72006;-74
2023/05/10 04:20:34;;;;;;;11.10;5.60;;;;;;;8.69;52.54;100603.52;105839;1258;73226;-75
2023/05/10 04:23:01;;;;;;;10.10;6.00;;;;;;;8.96;52.26;100600.75;105745;1260;60461;-76
2023/05/10 04:25:28;;;;;;;11.00;5.10;;;;;;;9.24;51.65;100597.92;105927;1256;61211;-73
2023/05/10 04:27:54;;;;;;;9.10;4.90;;;;;;;9.49;51.27;100598.52;105796;1259;74161;-75
2023/05/10 04:30:21;;;;;;;7.10;4.80;;;;;;;9.72;50.60;100599.75;105685;1265;72410;-74
2023/05/10 04:32:48;;;;;;;10.00;4.70;;;;;;;9.91;49.95;100597.94;105646;1256;75150;-75
2023/05/10 04:35:15;;;;;;;10.10;5.00;;;;;;;10.11;49.65;100600.41;105727;1260;62918;-72
2023/05/10 04:37:42;;;;;;;7.50;4.60;;;;;;;10.32;49.38;100598.20;105793;1256;62902;-73
2023/05/10 04:40:10;;;;;;;7.30;4.60;;;;;;;10.52;49.05;100598.30;105773;1261;76022;-74
2023/05/10 04:42:37;;;;;;;7.60;4.10;;;;;;;10.69;48.54;100598.04;105813;1261;71240;-74
2023/05/10 04:45:05;;;;;;;7.70;4.30;;;;;;;10.83;47.99;100598.84;105653;1263;73910;-77
2023/05/10 04:47:32;;;;;;;5.90;4.30;;;;;;;10.98;47.77;100596.67;105789;1259;60368;-73
2023/05/10 04:49:59;;;;;;;9.90;4.80;;;;;;;11.09;47.57;100597.09;105729;1256;62254;-76
2023/05/10 04:52:26;;;;;;;5.40;3.80;;;;;;;11.18;47.38;100594.45;105776;1261;74727;-75
2023/05/10 04:54:53;;;;;;;9.50;4.30;;;;;;;11.21;46.64;100589.80;105756;1258;72487;-75
2023/05/10 04:57:20;;;;;;;7.40;4.90;;;;;;;11.23;46.77;100593.38;105621;1258;73296;-77
2023/05/10 04:59:46;;;;;;;5.60;4.00;;;;;;;11.30;46.51;100593.23;105784;1259;62275;-77
2023/05/10 05:02:16;;;;;;;6.50;4.10;;;;;;;11.37;46.43;100593.48;105777;1259;62025;-76
2023/05/10 05:04:42;;;;;;;4.60;3.20;;;;;;;11.40;45.78;100591.11;105669;1264;76404;-72
2023/05/10 05:07:09;;;;;;;6.60;3.30;;;;;;;11.41;45.40;100596.70;105866;1260;72770;-77
2023/05/10 05:09:36;;;;;;;8.70;3.50;;;;;;;11.39;45.20;100598.34;105855;1260;71155;-76
2023/05/10 05:12:04;;;;;;;6.10;3.70;;;;;;;11.37;45.47;100598.69;105832;1260;60577;-75
2023/05/10 05:14:30;;;;;;;8.10;3.60;;;;;;;11.32;45.46;100601.20;105866;1261;62236;-76
2023/05/10 05:16:57;;;;;;;5.40;3.40;;;;;;;11.29;45.13;100599.16;106038;1258;74679;-77
2023/05/10 05:19:24;;;;;;;7.10;3.40;;;;;;;11.24;45.15;100598.07;106415;1257;69726;-78
2023/05/10 05:21:51;;;;;;;5.40;3.40;;;;;;;11.16;45.02;100597.27;106409;1260;73449;-77
2023/05/10 05:24:18;;;;;;;5.60;3.30;;;;;;;11.04;45.35;100595.38;105859;1258;62730;-75
2023/05/10 05:26:45;;;;;;;5.50;3.50;;;;;;;10.94;45.45;100598.16;105790;1259;61229;-76
2023/05/10 05:29:12;;;;;;;7.80;3.60;;;;;;;10.87;45.61;100601.17;105844;1260;74316;-76
2023/05/10 05:31:39;;;;;;;5.40;3.40;;;;;;;10.81;45.55;100597.41;106094;1256;71665;-74
2023/05/10 05:34:06;;;;;;;7.10;3.20;;;;;;;10.81;45.54;100599.91;105964;1261;73685;-74
2023/05/10 05:36:38;;;;;;;5.90;3.60;;;;;;;10.80;45.61;100599.27;105799;1260;60991;-74
2023/05/10 05:39:05;;;;;;;4.50;3.10;;;;;;;10.85;45.87;100597.77;105832;1261;60600;-73
2023/05/10 05:41:32;;;;;;;5.70;3.10;;;;;;;10.90;45.81;100600.38;106131;1260;75853;-73
2023/05/10 05:43:58;;;;;;;8.00;3.50;;;;;;;10.92;45.88;100600.30;106504;1260;71120;-76
2023/05/10 05:46:25;;;;;;;6.90;3.60;;;;;;;10.97;46.02;100599.83;106030;1255;73481;-75
2023/05/10 05:48:53;;;;;;;6.80;3.70;;;;;;;11.05;46.29;100600.08;105672;1259;60492;-76
2023/05/10 05:51:20;;;;;;;6.30;3.50;;;;;;;11.12;46.38;100599.20;105844;1257;60430;-75
2023/05/10 05:53:46;;;;;;;8.10;3.60;;;;;;;11.21;46.55;100599.22;105871;1260;73665;-76
2023/05/10 05:56:13;;;;;;;7.60;3.50;;;;;;;11.29;46.52;100599.88;105850;1261;71324;-75
2023/05/10 05:58:40;;;;;;;6.60;3.50;;;;;;;11.36;46.16;100599.33;105671;1261;74134;-76
2023/05/10 06:01:07;;;;;;;5.50;3.70;;;;;;;11.43;46.53;100595.65;105706;1258;60547;-71
2023/05/10 06:03:34;;;;;;;5.90;3.60;;;;;;;11.52;46.27;100599.92;105332;1257;62269;-73
2023/05/10 06:06:01;;;;;;;7.40;3.90;;;;;;;11.59;46.15;100601.89;105665;1257;74723;-73
2023/05/10 06:08:28;;;;;;;5.80;4.20;;;;;;;11.67;46.03;100602.11;105723;1257;70913;-74
2023/05/10 06:10:55;;;;;;;7.20;3.80;;;;;;;11.72;45.98;100598.95;105690;1260;71599;-72
2023/05/10 06:13:22;;;;;;;4.40;3.70;;;;;;;11.74;45.87;100601.93;105682;1263;61330;-74
2023/05/10 06:15:48;;;;;;;5.50;3.70;;;;;;;11.78;45.77;100596.40;105856;1257;62024;-73
2023/05/10 06:18:15;;;;;;;5.80;3.60;;;;;;;11.78;45.88;100596.59;105841;1261;76183;-73
2023/05/10 06:20:42;;;;;;;6.10;3.50;;;;;;;11.81;45.90;100593.83;105899;1260;70935;-73
2023/05/10 06:23:09;;;;;;;6.00;3.50;;;;;;;11.84;45.57;100597.41;105899;1260;74844;-73
2023/05/10 06:25:36;;;;;;;4.00;3.20;;;;;;;11.84;45.86;100598.48;105852;1257;62338;-74
2023/05/10 06:28:03;;;;;;;8.60;3.30;;;;;;;11.80;45.54;100597.59;105735;1265;62393;-74
2023/05/10 06:30:30;;;;;;;5.80;4.00;;;;;;;11.75;45.37;100596.91;105765;1257;74549;-74
2023/05/10 06:32:57;;;;;;;6.70;3.30;;;;;;;11.74;45.59;100597.73;105938;1257;70978;-75
2023/05/10 06:35:24;;;;;;;5.50;3.40;;;;;;;11.78;45.44;100596.61;105833;1260;74672;-73
2023/05/10 06:37:51;;;;;;;5.90;3.60;;;;;;;11.84;45.74;100594.35;106015;1257;60656;-74
2023/05/10 06:40:18;;;;;;;6.90;3.50;;;;;;;11.92;45.75;100595.02;106077;1257;60444;-73
2023/05/10 06:42:46;;;;;;;6.50;3.20;;;;;;;12.01;45.94;100593.02;106160;1256;74725;-73
2023/05/10 06:45:14;;;;;;;7.00;3.50;;;;;;;12.11;45.96;100596.14;105967;1257;71753;-72
2023/05/10 06:47:41;;;;;;;5.80;4.20;;;;;;;12.19;46.05;100599.73;105896;1263;74690;-73
2023/05/10 06:50:09;;;;;;;4.50;3.70;;;;;;;12.23;45.98;100594.94;105916;1263;61424;-71
2023/05/10 06:52:36;;;;;;;7.00;3.10;;;;;;;12.31;46.00;100593.71;105644;1271;63578;-69
2023/05/10 06:55:04;;;;;;;7.20;3.50;;;;;;;12.38;45.97;100597.44;105625;1264;73465;-71
2023/05/10 06:57:31;;;;;;;8.70;4.30;;;;;;;12.44;46.09;100599.63;106095;1260;70172;-71
2023/05/10 06:59:58;;;;;;;4.80;3.00;;;;;;;12.53;45.60;100601.77;105940;1260;75085;-73
2023/05/10 07:02:25;;;;;;;5.00;3.20;;;;;;;12.65;45.52;100596.63;106030;1256;62076;-77
2023/05/10 07:04:53;;;;;;;7.30;3.10;;;;;;;12.75;44.91;100598.87;106517;1257;62507;-75
2023/05/10 07:07:21;;;;;;;5.50;3.30;;;;;;;12.87;44.49;100599.31;106717;1255;75065;-75
2023/05/10 07:09:49;;;;;;;6.00;3.10;;;;;;;13.00;43.58;100594.34;106433;1255;72801;-73
2023/05/10 07:12:16;;;;;;;5.90;3.40;;;;;;;13.11;43.17;100595.27;106435;1257;73574;-72
2023/05/10 07:14:45;;;;;;;6.40;4.00;;;;;;;13.22;42.78;100591.68;106196;1260;62418;-73
2023/05/10 07:17:12;;;;;;;5.30;3.20;;;;;;;13.34;42.51;100591.81;106388;1261;62174;-71
2023/05/10 07:19:39;;;;;;;6.00;3.60;;;;;;;13.44;42.11;100596.61;106506;1257;73858;-76
2023/05/10 07:22:06;;;;;;;7.20;3.00;;;;;;;13.49;41.57;100593.61;106389;1261;71675;-71
2023/05/10 07:24:33;;;;;;;6.00;3.20;;;;;;;13.47;41.12;100593.81;106510;1260;73588;-76
2023/05/10 07:27:00;;;;;;;6.70;3.10;;;;;;;13.40;40.83;100596.31;106419;1258;61393;-74
2023/05/10 07:29:26;;;;;;;4.30;2.80;;;;;;;13.37;41.09;100593.94;106173;1260;61131;-75
2023/05/10 07:31:54;;;;;;;6.30;2.90;;;;;;;13.41;41.00;100592.09;105752;1258;75767;-76
2023/05/10 07:34:24;;;;;;;5.60;2.90;;;;;;;13.48;40.50;100597.45;106231;1262;71640;-75
2023/05/10 07:36:51;;;;;;;8.30;3.10;;;;;;;13.53;40.30;100596.38;106783;1257;73558;-74
2023/05/10 07:39:20;;;;;;;3.30;2.70;;;;;;;13.61;40.24;100597.94;106484;1256;62072;-75
2023/05/10 07:41:54;;;;;;;3.10;2.70;;;;;;;13.76;40.09;100594.97;106658;1257;60662;-76
2023/05/10 07:44:22;;;;;;;4.90;2.90;;;;;;;13.89;39.48;100590.79;106591;1257;74826;-72
2023/05/10 07:46:49;;;;;;;3.90;3.20;;;;;;;13.98;39.34;100588.54;106325;1261;72850;-76
2023/05/10 07:49:16;;;;;;;7.20;2.90;;;;;;;14.07;39.20;100588.65;106351;1257;73577;-76
2023/05/10 07:51:43;;;;;;;3.50;2.80;;;;;;;14.09;38.95;100581.09;106898;1257;61646;-74
2023/05/10 07:54:10;;;;;;;6.60;3.80;;;;;;;14.14;39.00;100579.29;106191;1257;61110;-71
2023/05/10 07:56:36;;;;;;;5.20;3.20;;;;;;;14.24;39.14;100579.82;106063;1257;75862;-72
2023/05/10 07:59:04;;;;;;;3.60;2.70;;;;;;;14.32;38.97;100575.56;105980;1257;72360;-72
2023/05/10 08:01:34;;;;;;;4.20;3.00;;;;;;;14.38;38.68;100580.05;106294;1257;74018;-74
2023/05/10 08:04:01;;;;;;;4.10;3.00;;;;;;;14.45;38.76;100577.32;106340;1258;60438;-76
2023/05/10 08:06:29;;;;;;;7.70;3.50;;;;;;;14.50;38.68;100574.92;106683;1262;62661;-75
2023/05/10 08:08:57;;;;;;;4.30;2.60;;;;;;;14.57;38.50;100572.48;107018;1256;73662;-74
2023/05/10 08:11:24;;;;;;;3.50;2.80;;;;;;;14.66;38.44;100575.89;107714;1257;70547;-77
2023/05/10 08:13:52;;;;;;;5.00;2.90;;;;;;;14.79;38.62;100572.38;107554;1257;72122;-73
2023/05/10 08:16:20;;;;;;;9.00;3.10;;;;;;;14.96;37.73;100573.33;107682;1257;61088;-75
2023/05/10 08:18:47;;;;;;;3.10;2.40;;;;;;;15.05;36.83;100571.96;108441;1256;60290;-76
2023/05/10 08:21:14;;;;;;;8.40;2.40;;;;;;;15.09;36.78;100569.99;108950;1256;72997;-76
2023/05/10 08:23:43;;;;;;;4.60;2.80;;;;;;;15.19;36.44;100567.09;109020;1257;72963;-75
2023/05/10 08:26:10;;;;;;;3.80;2.70;;;;;;;15.35;36.51;100561.65;108139;1257;73533;-74
2023/05/10 08:28:37;;;;;;;3.60;2.70;;;;;;;15.48;36.17;100555.48;107683;1257;61311;-75
2023/05/10 08:31:05;;;;;;;4.30;2.90;;;;;;;15.61;36.23;100542.84;109033;1256;60165;-73
2023/05/10 08:33:32;;;;;;;3.80;2.90;;;;;;;15.77;36.22;100553.40;108940;1256;74673;-70
2023/05/10 08:36:02;;;;;;;4.80;3.00;;;;;;;15.98;36.24;100557.16;109052;1260;71317;-74
2023/05/10 08:38:29;;;;;;;6.10;2.70;;;;;;;16.22;36.06;100557.84;108958;1258;73051;-77
2023/05/10 08:41:01;;;;;;;3.10;2.70;;;;;;;16.49;36.03;100558.48;109000;1256;61210;-77
2023/05/10 08:43:29;;;;;;;3.40;2.60;;;;;;;16.77;35.68;100564.27;109002;1256;61175;-77
2023/05/10 08:45:56;;;;;;;7.00;2.80;;;;;;;16.86;35.08;100562.09;108401;1257;74630;-71
2023/05/10 08:48:24;;;;;;;6.10;3.00;;;;;;;16.82;35.12;100560.92;107331;1257;70222;-71
2023/05/10 08:50:54;;;;;;;4.50;2.10;;;;;;;16.75;35.18;100562.69;108908;1256;71020;-72
2023/05/10 08:53:21;;;;;;;4.90;2.70;;;;;;;16.70;35.26;100568.15;108937;1257;61429;-73
2023/05/10 08:55:48;;;;;;;5.10;2.90;;;;;;;16.67;35.06;100565.64;107992;1256;60711;-72
2023/05/10 08:58:15;;;;;;;3.60;2.70;;;;;;;16.61;35.30;100564.23;108263;1257;72793;-73
2023/05/10 09:00:42;;;;;;;3.70;3.30;;;;;;;16.51;35.41;100561.44;108318;1257;71273;-74
2023/05/10 09:03:11;;;;;;;4.40;2.60;;;;;;;16.47;35.45;100560.75;108083;1256;73770;-73
2023/05/10 09:05:38;;;;;;;4.40;2.90;;;;;;;16.46;35.53;100558.56;108022;1256;60256;-72
2023/05/10 09:08:08;;;;;;;3.60;2.10;;;;;;;16.49;35.49;100559.92;108686;1255;60992;-72
2023/05/10 09:10:35;;;;;;;3.40;2.50;;;;;;;16.66;35.22;100561.33;109012;1257;73778;-72
2023/05/10 09:13:02;;;;;;;4.80;2.50;;;;;;;16.92;34.88;100565.24;108512;1257;71179;-72
2023/05/10 09:15:28;;;;;;;3.00;2.00;;;;;;;17.29;34.79;100557.87;108797;1256;73699;-72
2023/05/10 09:17:56;;;;;;;3.90;2.60;;;;;;;17.70;34.45;100554.62;108575;1256;60807;-73
2023/05/10 09:20:26;;;;;;;7.00;2.40;;;;;;;18.01;33.84;100552.46;107663;1256;60288;-72
2023/05/10 09:22:53;;;;;;;7.90;2.30;;;;;;;18.26;33.49;100556.29;107425;1257;76322;-71
2023/05/10 09:25:20;;;;;;;3.10;2.70;;;;;;;18.62;32.69;100552.81;107364;1257;71865;-72
2023/05/10 09:27:47;;;;;;;3.00;2.60;;;;;;;18.94;32.30;100547.48;107611;1256;73701;-72
2023/05/10 09:30:32;;;;;;;6.00;2.40;;;;;;;19.11;31.87;100551.25;107544;1256;60481;-73
2023/05/10 09:33:00;;;;;;;3.70;2.50;;;;;;;19.08;31.84;100547.65;107621;1256;60982;-70
2023/05/10 09:35:29;;;;;;;5.90;2.50;;;;;;;18.86;31.94;100553.41;107955;1257;75746;-72
2023/05/10 09:38:02;;;;;;;4.40;2.70;;;;;;;18.60;32.19;100547.61;107772;1255;72718;-71
2023/05/10 09:40:29;;;;;;;5.50;3.30;;;;;;;18.39;32.28;100552.38;106994;1260;73503;-73
2023/05/10 09:43:00;;;;;;;3.90;3.00;;;;;;;18.17;32.48;100549.02;107860;1259;61249;-72
2023/05/10 09:45:29;;;;;;;2.60;2.40;;;;;;;17.98;32.64;100552.58;108777;1255;60881;-72
2023/05/10 09:47:56;;;;;;;3.60;2.40;;;;;;;17.79;32.86;100548.94;108743;1256;74053;-73
2023/05/10 09:50:23;;;;;;;2.80;2.30;;;;;;;17.66;32.93;100549.25;107803;1256;72644;-72
2023/05/10 09:52:51;;;;;;;2.90;2.60;;;;;;;17.50;33.05;100545.33;107461;1254;74943;-72
2023/05/10 09:55:22;;;;;;;5.00;2.40;;;;;;;17.30;32.94;100544.48;108743;1255;58581;-75
2023/05/10 09:57:50;;;;;;;4.40;2.90;;;;;;;17.10;33.19;100543.95;108013;1256;61115;-72
2023/05/10 10:00:19;;;;;;;3.80;2.60;;;;;;;16.92;33.38;100547.01;108482;1255;74496;-73
2023/05/10 10:02:58;;;;;;;2.80;2.00;;;;;;;16.76;33.73;100545.55;109036;1255;71240;-72
2023/05/10 10:05:29;;;;;;;3.30;2.40;;;;;;;16.63;33.77;100546.82;107786;1257;73660;-72
2023/05/10 10:07:59;;;;;;;4.20;2.40;;;;;;;16.53;33.90;100542.31;107280;1256;360487;-71
2023/05/10 10:12:27;;;;;;;3.70;3.00;;;;;;;16.36;34.27;100544.58;104408;1292;601642;-74
2023/05/10 10:14:54;;;;;;;4.00;2.60;;;;;;;16.20;34.46;100544.89;106503;1266;61325;-72
2023/05/10 10:17:21;;;;;;;3.20;2.80;;;;;;;16.11;34.61;100539.45;106308;1266;61222;-72
2023/05/10 10:19:48;;;;;;;3.70;3.10;;;;;;;16.06;34.54;100536.54;106654;1267;70799;-72
2023/05/10 10:22:15;;;;;;;4.80;2.90;;;;;;;15.99;34.34;100537.02;106879;1272;71412;-72
2023/05/10 10:24:42;;;;;;;9.40;3.40;;;;;;;15.87;34.47;100536.34;106648;1269;70933;-72
2023/05/10 10:27:25;;;;;;;6.00;3.50;;;;;;;15.78;34.50;100539.76;106792;1263;165550;-71
2023/05/10 10:30:11;;;;;;;3.60;2.60;;;;;;;15.71;34.52;100538.55;107770;1265;61464;-72
2023/05/10 10:33:23;;;;;;;3.30;2.90;;;;;;;15.65;34.56;100541.61;105848;1264;72235;-72
2023/05/10 10:35:55;;;;;;;4.80;2.70;;;;;;;15.55;34.56;100537.55;105192;1263;72480;-73
2023/05/10 10:38:22;;;;;;;8.10;3.40;;;;;;;15.44;34.92;100532.42;105285;1267;74577;-73
2023/05/10 10:41:01;;;;;;;4.10;2.40;;;;;;;15.36;35.41;100540.98;105600;1257;60773;-73
2023/05/10 10:43:28;;;;;;;5.90;3.00;;;;;;;15.26;35.35;100539.56;105940;1252;61988;-72
2023/05/10 10:46:16;;;;;;;2.70;2.50;;;;;;;15.14;35.38;100541.30;105999;1257;74951;-71
2023/05/10 10:48:49;;;;;;;3.80;2.40;;;;;;;15.05;35.48;100542.03;105891;1258;71977;-71
2023/05/10 10:51:16;;;;;;;4.30;3.00;;;;;;;14.96;35.58;100542.65;106035;1253;74866;-73
2023/05/10 10:53:43;;;;;;;6.20;3.20;;;;;;;14.89;35.75;100541.66;106067;1254;61182;-73
2023/05/10 10:56:14;;;;;;;4.80;2.90;;;;;;;14.83;35.83;100540.63;105914;1254;61956;-71
2023/05/10 10:58:42;;;;;;;2.60;2.30;;;;;;;14.84;36.03;100539.91;105950;1257;75337;-72
2023/05/10 11:01:18;;;;;;;6.20;2.80;;;;;;;14.91;36.06;100536.96;105803;1254;72412;-71
2023/05/10 11:04:18;;;;;;;6.00;2.90;;;;;;;15.05;36.00;100534.70;105779;1259;73364;-69
2023/05/10 11:06:45;;;;;;;4.90;2.80;;;;;;;15.27;35.90;100528.89;106027;1252;60034;-73
2023/05/10 11:09:12;;;;;;;4.30;2.60;;;;;;;15.50;35.62;100525.48;105880;1259;60486;-72
2023/05/10 11:11:50;;;;;;;4.10;2.60;;;;;;;15.81;35.87;100523.23;105879;1252;74065;-72
2023/05/10 11:14:20;;;;;;;4.60;3.20;;;;;;;16.19;35.23;100521.21;106023;1257;71812;-75
2023/05/10 11:16:46;;;;;;;3.70;2.50;;;;;;;16.50;34.78;100517.09;105955;1253;74710;-72
2023/05/10 11:19:15;;;;;;;9.50;3.10;;;;;;;16.70;34.52;100521.13;106028;1254;61947;-71
2023/05/10 11:21:47;;;;;;;3.60;2.90;;;;;;;16.78;34.33;100515.29;106343;1257;62667;-71
2023/05/10 11:24:18;;;;;;;4.10;2.70;;;;;;;16.80;34.28;100515.27;105837;1257;72759;-72
2023/05/10 11:26:45;;;;;;;3.50;2.70;;;;;;;16.76;34.08;100517.29;105911;1254;69817;-72
2023/05/10 11:29:13;;;;;;;8.00;2.90;;;;;;;16.73;34.03;100519.64;106046;1254;74749;-72